Mandarin — P3NV9 — position and weather

sailwx.info

Track history (hours):
 
Tides and Currents Weather Stations Pressure Air Temp Water Temp Dewpoint Dewpoint Depression Visibility Wind Speed Wind Dir Waves Ship Positions

Mandarin

Last reported at 2018-Feb-17 21:47 UTC. Time now 2018-Feb-19 06:27 UTC.
Position N 43°38' W 006°04'.

Length 186 m; draft 6 m.

Type: Cargo ship. MMSI: 210464000.

Date/timePositionNaut miles runAvg speedWind from/ knotsBaromVisibWave heightAir tempDewpointWater temp
2018-Feb-17 21:47N 43°38' W 006°04'  
2018-Feb-14 08:59N 39°33' W 009°43'911.7
2018-Feb-14 08:14N 39°24' W 009°44'312.1
2018-Feb-14 08:00N 39°22' W 009°45'612.2
2018-Feb-14 07:30N 39°16' W 009°46'611.9
2018-Feb-14 07:00N 39°10' W 009°47'611.7
2018-Feb-14 06:30N 39°04' W 009°49'612.0
2018-Feb-14 06:00N 38°58' W 009°50'611.6
2018-Feb-14 05:30N 38°52' W 009°51'611.9
2018-Feb-14 05:00N 38°46' W 009°51'611.9
2018-Feb-14 04:30N 38°41' W 009°50'611.5
2018-Feb-14 04:00N 38°35' W 009°49'611.5
2018-Feb-14 03:30N 38°29' W 009°47'611.7
2018-Feb-14 03:00N 38°23' W 009°45'611.6
2018-Feb-14 02:29N 38°18' W 009°44'611.6
2018-Feb-14 01:56N 38°11' W 009°42'511.7
2018-Feb-14 01:29N 38°06' W 009°40'611.6
2018-Feb-14 01:00N 38°01' W 009°38'611.9
2018-Feb-14 00:30N 37°55' W 009°37'612.0
2018-Feb-14 00:00N 37°49' W 009°35'712.3
2018-Feb-13 23:24N 37°42' W 009°33'21711.1
2018-Feb-13 03:52N 35°57' W 005°35'410.3
2018-Feb-13 03:30N 35°59' W 005°31'511.0
2018-Feb-13 03:00N 36°01' W 005°25'511.0
2018-Feb-13 02:30N 36°06' W 005°23'1 2.1
2018-Feb-13 01:59N 36°07' W 005°22'0 0.1
2018-Feb-13 01:29N 36°07' W 005°22'0 0.0
2018-Feb-13 00:59N 36°07' W 005°22'0 0.0
2018-Feb-13 00:29N 36°07' W 005°22'0 0.0
2018-Feb-12 23:56N 36°07' W 005°22'0 0.1
2018-Feb-12 23:29N 36°07' W 005°21'0 0.0
2018-Feb-12 22:59N 36°07' W 005°22'0 0.0
2018-Feb-12 22:23N 36°07' W 005°21'0 0.0
2018-Feb-12 21:59N 36°07' W 005°21'0 0.0
2018-Feb-12 21:20N 36°07' W 005°21'0 0.0
2018-Feb-12 20:59N 36°07' W 005°21'0 0.0
2018-Feb-12 19:44N 36°07' W 005°21'0 0.1
2018-Feb-12 19:29N 36°07' W 005°21'0 0.0
2018-Feb-12 18:56N 36°07' W 005°21'0 0.0
2018-Feb-12 18:14N 36°07' W 005°21'0 0.0
2018-Feb-12 17:47N 36°07' W 005°21'0 0.0
2018-Feb-12 17:28N 36°07' W 005°21'0 0.5
2018-Feb-12 16:58N 36°07' W 005°22'2 4.3
2018-Feb-12 16:29N 36°05' W 005°20'2 3.3
2018-Feb-12 15:58N 36°05' W 005°18'2 1.6
2018-Feb-12 14:55N 36°06' W 005°16'0 0.8
2018-Feb-12 14:30N 36°06' W 005°16'1 1.6
2018-Feb-12 13:47N 36°06' W 005°15'0 1.6
2018-Feb-12 13:30N 36°06' W 005°15'1 1.8
2018-Feb-12 13:00N 36°06' W 005°14'  
Track history (hours):
 
Tides and Currents Weather Stations Pressure Air Temp Water Temp Dewpoint Dewpoint Depression Visibility Wind Speed Wind Dir Waves Ship Positions

Mandarin

Last reported at 2018-Feb-17 21:47 UTC. Time now 2018-Feb-19 06:27 UTC.
Position N 43°38' W 006°04'.

Length 186 m; draft 6 m.

Type: Cargo ship. MMSI: 210464000.

Date/timePositionNaut miles runAvg speedWind from/ knotsBaromVisibWave heightAir tempDewpointWater temp
2018-Feb-17 21:47N 43°38' W 006°04'  
2018-Feb-14 08:59N 39°33' W 009°43'911.7
2018-Feb-14 08:14N 39°24' W 009°44'312.1
2018-Feb-14 08:00N 39°22' W 009°45'612.2
2018-Feb-14 07:30N 39°16' W 009°46'611.9
2018-Feb-14 07:00N 39°10' W 009°47'611.7
2018-Feb-14 06:30N 39°04' W 009°49'612.0
2018-Feb-14 06:00N 38°58' W 009°50'611.6
2018-Feb-14 05:30N 38°52' W 009°51'611.9
2018-Feb-14 05:00N 38°46' W 009°51'611.9
2018-Feb-14 04:30N 38°41' W 009°50'611.5
2018-Feb-14 04:00N 38°35' W 009°49'611.5
2018-Feb-14 03:30N 38°29' W 009°47'611.7
2018-Feb-14 03:00N 38°23' W 009°45'611.6
2018-Feb-14 02:29N 38°18' W 009°44'611.6
2018-Feb-14 01:56N 38°11' W 009°42'511.7
2018-Feb-14 01:29N 38°06' W 009°40'611.6
2018-Feb-14 01:00N 38°01' W 009°38'611.9
2018-Feb-14 00:30N 37°55' W 009°37'612.0
2018-Feb-14 00:00N 37°49' W 009°35'712.3
2018-Feb-13 23:24N 37°42' W 009°33'21711.1
2018-Feb-13 03:52N 35°57' W 005°35'410.3
2018-Feb-13 03:30N 35°59' W 005°31'511.0
2018-Feb-13 03:00N 36°01' W 005°25'511.0
2018-Feb-13 02:30N 36°06' W 005°23'1 2.1
2018-Feb-13 01:59N 36°07' W 005°22'0 0.1
2018-Feb-13 01:29N 36°07' W 005°22'0 0.0
2018-Feb-13 00:59N 36°07' W 005°22'0 0.0
2018-Feb-13 00:29N 36°07' W 005°22'0 0.0
2018-Feb-12 23:56N 36°07' W 005°22'0 0.1
2018-Feb-12 23:29N 36°07' W 005°21'0 0.0
2018-Feb-12 22:59N 36°07' W 005°22'0 0.0
2018-Feb-12 22:23N 36°07' W 005°21'0 0.0
2018-Feb-12 21:59N 36°07' W 005°21'0 0.0
2018-Feb-12 21:20N 36°07' W 005°21'0 0.0
2018-Feb-12 20:59N 36°07' W 005°21'0 0.0
2018-Feb-12 19:44N 36°07' W 005°21'0 0.1
2018-Feb-12 19:29N 36°07' W 005°21'0 0.0
2018-Feb-12 18:56N 36°07' W 005°21'0 0.0
2018-Feb-12 18:14N 36°07' W 005°21'0 0.0
2018-Feb-12 17:47N 36°07' W 005°21'0 0.0
2018-Feb-12 17:28N 36°07' W 005°21'0 0.5
2018-Feb-12 16:58N 36°07' W 005°22'2 4.3
2018-Feb-12 16:29N 36°05' W 005°20'2 3.3
2018-Feb-12 15:58N 36°05' W 005°18'2 1.6
2018-Feb-12 14:55N 36°06' W 005°16'0 0.8
2018-Feb-12 14:30N 36°06' W 005°16'1 1.6
2018-Feb-12 13:47N 36°06' W 005°15'0 1.6
2018-Feb-12 13:30N 36°06' W 005°15'1 1.8
2018-Feb-12 13:00N 36°06' W 005°14'  

Dump ship's entire track history